• Join FlightAware (Why Join?)
  • Login
  • US Flag 
09:33AM EDT


 

Airport Tracker/Info


-or-


 

Live Flight TrackerFlight Track Log ✈ SWA1969 ✈ 15-Apr-2013 ✈ KMCI - KMDW

Flight Track Log - Related Links

Times and Time Zones

All times are in EDT time to prevent confusion due to time zone crossing. See the SWA1969 flight status page for this flight to view local times or setup timezone preferences in your user account.

Time Position Orientation Groundspeed Altitude Reporting Facility
EDT Latitude Longitude Course Direction KTS MPH feet Rate Location/Type
11:22AM 39.3167 -94.7167 29° Northeast 152 175 2,000  Level Kansas City TRACON
11:23AM 39.3644 -94.6825 29° Northeast 192 221 3,400 1,680 Climbing Kansas City Center
11:24AM 39.4167 -94.6367 34° Northeast 231 266 5,600 2,280 Climbing Kansas City Center
11:25AM 39.4831 -94.5569 43° Northeast 301 346 8,200 2,400 Climbing Kansas City Center
11:26AM 39.5392 -94.4739 49° Northeast 318 366 10,600 2,280 Climbing Kansas City Center
11:27AM 39.6169 -94.3572 49° Northeast 386 444 13,000 2,460 Climbing Kansas City Center
11:28AM 39.6850 -94.2508 50° Northeast 398 458 15,700 2,700 Climbing Kansas City Center
11:29AM 39.7681 -94.1200 50° Northeast 420 483 18,700 2,460 Climbing Kansas City Center
11:30AM 39.8478 -93.9867 52° Northeast 441 507 20,800 1,920 Climbing Kansas City Center
11:31AM 39.8869 -93.8278 72° East 464 534 22,700 1,800 Climbing Kansas City Center
11:32AM 39.9242 -93.6656 73° East 472 543 24,600 1,680 Climbing Kansas City Center
11:33AM 39.9597 -93.4958 75° East 486 559 26,300 1,500 Climbing Kansas City Center
11:34AM 39.9969 -93.3233 74° East 497 572 27,800 1,740 Climbing Kansas City Center
11:35AM 40.0428 -93.1125 74° East 506 582 29,900 1,500 Climbing Kansas City Center
11:36AM 40.0781 -92.9439 75° East 501 577 31,000 480 Climbing Kansas City Center
11:37AM 40.1175 -92.7447 75° East 504 580 31,000  Level Kansas City Center
11:38AM 40.1519 -92.5750 75° East 503 579 31,000  Level Kansas City Center
11:39AM 40.1886 -92.4078 74° East 499 574 31,000  Level Kansas City Center
11:40AM 40.2261 -92.2128 76° East 505 581 31,000  Level Kansas City Center
11:41AM 40.2608 -92.0386 75° East 503 579 31,000  Level Kansas City Center
11:42AM 40.2950 -91.8628 76° East 504 580 31,000  Level Kansas City Center
11:43AM 40.3350 -91.6503 76° East 505 581 31,000  Level Kansas City Center
11:44AM 40.3703 -91.4744 75° East 505 581 31,000 -120 Level Kansas City Center
11:45AM 40.3975 -91.3328 76° East 504 580 30,800 -720 Descending Chicago Center
11:46AM 40.4294 -91.1617 76° East 500 575 29,700 -1,020 Descending Chicago Center
11:47AM 40.4561 -90.9903 78° East 483 556 28,700 -1,020 Descending Chicago Center
11:48AM 40.4575 -90.8208 89° East 467 537 27,700 -1,080 Descending Chicago Center
11:49AM 40.5275 -90.6400 63° Northeast 462 532 26,500 -1,080 Descending Chicago Center
11:50AM 40.5914 -90.4961 60° Northeast 457 526 25,500 -900 Descending Chicago Center
11:51AM 40.6594 -90.3453 59° Northeast 476 548 24,700 -900 Descending Chicago Center
11:52AM 40.7314 -90.1875 59° Northeast 486 559 23,700 -1,020 Descending Chicago Center
11:53AM 40.7978 -90.0383 60° Northeast 477 549 22,700 -1,020 Descending Chicago Center
11:54AM 40.8650 -89.8903 59° Northeast 470 541 21,700 -1,020 Descending Chicago Center
11:55AM 40.9286 -89.7444 60° Northeast 459 528 20,700 -1,320 Descending Chicago Center
11:56AM 40.9914 -89.6017 60° Northeast 451 519 19,000 -1,860 Descending Chicago Center
11:57AM 41.0569 -89.4550 59° Northeast 439 505 17,000 -1,320 Descending Chicago Center
11:58AM 41.1156 -89.3222 60° Northeast 420 483 16,300 -1,260 Descending Chicago Center
12:00PM 41.1778 -89.1775 60° Northeast 403 464 14,500 -1,800 Descending Chicago Center
12:01PM 41.2331 -89.0531 59° Northeast 395 455 12,600 -1,860 Descending Chicago Center
12:02PM 41.2850 -88.9289 61° Northeast 387 445 10,700 -1,320 Descending Chicago Center
12:03PM 41.3342 -88.8153 60° Northeast 360 414 10,000 -1,080 Descending Chicago Center
12:04PM 41.3842 -88.6931 61° Northeast 317 365 8,500 -1,440 Descending Chicago Center
12:05PM 41.4081 -88.5858 73° East 305 351 7,100 -1,080 Descending Chicago Center
12:06PM 41.4317 -88.4767 74° East 307 353 6,300 -660 Descending Chicago Center
12:07PM 41.4547 -88.3689 74° East 304 350 5,800 -660 Descending Chicago Center
12:08PM 41.4764 -88.2622 75° East 300 345 5,000 -420 Descending Chicago Center
12:09PM 41.4983 -88.1611 74° East 287 330 5,000  Level Chicago Center
12:10PM 41.5208 -88.0564 74° East 288 331 5,000  Level Chicago Center
12:11PM 41.5439 -87.9506 74° East 292 336 5,000 -480 Level Chicago Center
12:12PM 41.5692 -87.8242 75° East 293 337 4,100 -1,020 Descending Chicago Center
12:13PM 41.5919 -87.7211 74° East 292 336 3,000 -600 Descending Chicago Center
12:14PM 41.6333 -87.6500 52° Northeast 256 295 3,000 -240 Level Chicago TRACON
12:15PM 41.6833 -87.6167 26° Northeast 245 282 2,600 -420 Descending Chicago TRACON
12:15PM 41.6919 -87.6275 317° Northwest 251 289 2,500 -420 Descending Chicago Center
12:16PM 41.7167 -87.6667 310° West 198 228 2,200 -540 Descending Chicago TRACON
12:17PM 41.7667 -87.7000 334° Northwest 181 208 1,600 -480 Descending Chicago TRACON
12:18PM 41.8167 -87.7000 360° North 176 203 1,300 -300 Descending Chicago TRACON